Time,TemperatureF,DewpointF,PressureIn,WindDirection,WindDirectionDegrees,WindSpeedMPH,WindSpeedGustMPH,Humidity,HourlyPrecipIn,Conditions,Clouds,dailyrainin,SoftwareType,DateUTC
2013-04-11 00:14:00,53.6,50.0,28.14,South,181,0.0,0.0,87,0.00,,,0.00,weatherlink.com 1.10,2013-04-11 04:14:00,
2013-04-11 00:29:00,53.4,49.0,28.15,South,182,0.0,0.0,86,0.00,,,0.00,weatherlink.com 1.10,2013-04-11 04:29:00,
2013-04-11 00:44:00,53.0,49.0,28.15,South,182,0.0,0.0,86,0.00,,,0.00,weatherlink.com 1.10,2013-04-11 04:44:00,
2013-04-11 00:59:00,53.4,49.0,28.16,NNE,12,0.0,4.0,86,0.00,,,0.00,weatherlink.com 1.10,2013-04-11 04:59:00,
2013-04-11 01:14:00,52.5,49.0,28.18,NNE,15,0.0,1.0,88,0.00,,,0.00,weatherlink.com 1.10,2013-04-11 05:14:00,
2013-04-11 01:29:00,52.2,49.0,28.19,NNE,16,0.0,1.0,90,0.00,,,0.00,weatherlink.com 1.10,2013-04-11 05:29:00,
2013-04-11 01:59:00,50.9,48.0,28.18,South,188,0.0,1.0,90,0.00,,,0.00,weatherlink.com 1.10,2013-04-11 05:59:00,
2013-04-11 02:14:00,50.6,48.0,28.18,South,188,0.0,1.0,90,0.00,,,0.00,weatherlink.com 1.10,2013-04-11 06:14:00,
2013-04-11 02:29:00,49.9,48.0,28.18,SSW,195,0.0,0.0,92,0.00,,,0.00,weatherlink.com 1.10,2013-04-11 06:29:00,
2013-04-11 02:44:00,49.7,48.0,28.17,SSW,195,0.0,0.0,94,0.00,,,0.00,weatherlink.com 1.10,2013-04-11 06:44:00,
2013-04-11 02:59:00,49.9,48.0,28.16,SSW,195,0.0,1.0,94,0.00,,,0.00,weatherlink.com 1.10,2013-04-11 06:59:00,
2013-04-11 03:14:00,48.9,47.0,28.15,SSW,196,0.0,0.0,93,0.00,,,0.00,weatherlink.com 1.10,2013-04-11 07:14:00,
2013-04-11 03:29:00,48.9,48.0,28.15,SSW,195,0.0,0.0,95,0.00,,,0.00,weatherlink.com 1.10,2013-04-11 07:29:00,
2013-04-11 03:45:00,49.2,48.0,28.15,SSW,195,0.0,0.0,94,0.00,,,0.00,weatherlink.com 1.10,2013-04-11 07:45:00,
2013-04-11 04:00:00,48.2,47.0,28.15,SSW,195,0.0,0.0,94,0.00,,,0.00,weatherlink.com 1.10,2013-04-11 08:00:00,
2013-04-11 04:15:00,48.1,47.0,28.15,SSW,195,0.0,0.0,95,0.00,,,0.00,weatherlink.com 1.10,2013-04-11 08:15:00,
2013-04-11 04:30:00,47.1,46.0,28.15,SSW,194,0.0,0.0,95,0.00,,,0.00,weatherlink.com 1.10,2013-04-11 08:30:00,
2013-04-11 04:45:00,47.3,46.0,28.14,SSW,194,0.0,0.0,96,0.00,,,0.00,weatherlink.com 1.10,2013-04-11 08:45:00,
2013-04-11 05:00:00,46.9,46.0,28.15,SSW,194,0.0,0.0,95,0.00,,,0.00,weatherlink.com 1.10,2013-04-11 09:00:00,
2013-04-11 05:15:00,46.2,45.0,28.15,SSW,194,0.0,0.0,95,0.00,,,0.00,weatherlink.com 1.10,2013-04-11 09:15:00,
2013-04-11 05:30:00,46.3,45.0,28.15,SSW,194,0.0,0.0,96,0.00,,,0.00,weatherlink.com 1.10,2013-04-11 09:30:00,
2013-04-11 05:45:00,46.7,46.0,28.14,SSW,194,0.0,0.0,97,0.00,,,0.00,weatherlink.com 1.10,2013-04-11 09:45:00,
2013-04-11 06:00:00,46.4,45.0,28.14,SSW,193,0.0,0.0,96,0.00,,,0.00,weatherlink.com 1.10,2013-04-11 10:00:00,
2013-04-11 06:15:00,46.2,45.0,28.14,SSW,194,0.0,0.0,96,0.00,,,0.00,weatherlink.com 1.10,2013-04-11 10:15:00,
2013-04-11 06:30:00,46.3,46.0,28.14,SSW,194,0.0,0.0,97,0.00,,,0.00,weatherlink.com 1.10,2013-04-11 10:30:00,
2013-04-11 06:45:00,46.0,45.0,28.14,SSW,194,0.0,0.0,97,0.00,,,0.00,weatherlink.com 1.10,2013-04-11 10:45:00,
2013-04-11 07:00:00,46.1,45.0,28.15,SSW,194,0.0,0.0,97,0.00,,,0.00,weatherlink.com 1.10,2013-04-11 11:00:00,
2013-04-11 07:15:00,46.7,46.0,28.15,SSW,194,0.0,1.0,97,0.00,,,0.00,weatherlink.com 1.10,2013-04-11 11:15:00,
2013-04-11 07:30:00,46.4,46.0,28.15,SSW,194,0.0,0.0,97,0.00,,,0.00,weatherlink.com 1.10,2013-04-11 11:30:00,
2013-04-11 07:45:00,47.3,47.0,28.16,SSW,194,0.0,0.0,97,0.00,,,0.00,weatherlink.com 1.10,2013-04-11 11:45:00,
2013-04-11 08:00:00,48.7,48.0,28.16,SW,214,0.0,0.0,97,0.00,,,0.00,weatherlink.com 1.10,2013-04-11 12:00:00,
2013-04-11 08:15:00,50.5,50.0,28.16,SW,215,0.0,0.0,98,0.00,,,0.00,weatherlink.com 1.10,2013-04-11 12:15:00,
2013-04-11 08:30:00,52.4,52.0,28.16,SSE,166,0.0,1.0,98,0.00,,,0.00,weatherlink.com 1.10,2013-04-11 12:30:00,
2013-04-11 08:45:00,54.4,53.0,28.15,SSE,166,0.0,1.0,96,0.00,,,0.00,weatherlink.com 1.10,2013-04-11 12:45:00,
2013-04-11 09:00:00,56.9,54.0,28.16,SSE,168,0.0,0.0,91,0.00,,,0.00,weatherlink.com 1.10,2013-04-11 13:00:00,
2013-04-11 09:15:00,59.2,54.0,28.15,SSE,167,0.0,1.0,82,0.00,,,0.00,weatherlink.com 1.10,2013-04-11 13:15:00,
2013-04-11 09:30:00,62.4,55.0,28.15,SSE,167,0.0,0.0,77,0.00,,,0.00,weatherlink.com 1.10,2013-04-11 13:30:00,
2013-04-11 09:45:00,65.0,57.0,28.15,SSW,197,0.0,1.0,76,0.00,,,0.00,weatherlink.com 1.10,2013-04-11 13:45:00,
2013-04-11 10:00:00,67.5,59.0,28.14,SSW,197,0.0,1.0,73,0.00,,,0.00,weatherlink.com 1.10,2013-04-11 14:00:00,
2013-04-11 10:15:00,69.6,59.0,28.14,SSW,198,0.0,1.0,70,0.00,,,0.00,weatherlink.com 1.10,2013-04-11 14:15:00,
2013-04-11 10:30:00,73.4,58.0,28.13,ESE,112,2.0,3.0,59,0.00,,,0.00,weatherlink.com 1.10,2013-04-11 14:30:00,
2013-04-11 10:45:00,77.0,58.0,28.12,ESE,120,1.0,7.0,53,0.00,,,0.00,weatherlink.com 1.10,2013-04-11 14:45:00,
2013-04-11 11:00:00,78.2,58.0,28.12,SSE,147,1.0,4.0,50,0.00,,,0.00,weatherlink.com 1.10,2013-04-11 15:00:00,
2013-04-11 11:15:00,78.4,58.0,28.11,East,82,7.0,7.0,49,0.00,,,0.00,weatherlink.com 1.10,2013-04-11 15:15:00,
2013-04-11 11:30:00,79.3,57.0,28.11,SE,146,5.0,8.0,46,0.00,,,0.00,weatherlink.com 1.10,2013-04-11 15:30:00,
2013-04-11 11:45:00,80.4,59.0,28.10,South,172,2.0,4.0,49,0.00,,,0.00,weatherlink.com 1.10,2013-04-11 15:45:00,
2013-04-11 12:00:00,80.6,55.0,28.10,SSE,168,1.0,7.0,42,0.00,,,0.00,weatherlink.com 1.10,2013-04-11 16:00:00,
2013-04-11 12:15:00,81.5,56.0,28.09,South,170,0.0,5.0,41,0.00,,,0.00,weatherlink.com 1.10,2013-04-11 16:15:00,
2013-04-11 12:30:00,82.4,60.0,28.08,NW,316,0.0,5.0,46,0.00,,,0.00,weatherlink.com 1.10,2013-04-11 16:30:00,
2013-04-11 12:45:00,83.4,60.0,28.07,SW,214,0.0,5.0,45,0.00,,,0.00,weatherlink.com 1.10,2013-04-11 16:45:00,
2013-04-11 13:00:00,82.4,54.0,28.06,SSW,205,1.0,6.0,38,0.00,,,0.00,weatherlink.com 1.10,2013-04-11 17:00:00,
2013-04-11 13:15:00,83.5,55.0,28.06,SSW,195,1.0,8.0,37,0.00,,,0.00,weatherlink.com 1.10,2013-04-11 17:15:00,
2013-04-11 13:30:00,83.7,53.0,28.05,SSE,153,0.0,7.0,35,0.00,,,0.00,weatherlink.com 1.10,2013-04-11 17:30:00,
2013-04-11 13:45:00,83.4,50.0,28.04,SSE,152,3.0,11.0,31,0.00,,,0.00,weatherlink.com 1.10,2013-04-11 17:45:00,
2013-04-11 14:00:00,83.8,48.0,28.04,SSW,195,1.0,11.0,29,0.00,,,0.00,weatherlink.com 1.10,2013-04-11 18:00:00,
2013-04-11 14:15:00,83.6,49.0,28.03,SE,142,8.0,13.0,30,0.00,,,0.00,weatherlink.com 1.10,2013-04-11 18:15:00,
2013-04-11 14:30:00,84.0,48.0,28.03,South,181,3.0,13.0,28,0.00,,,0.00,weatherlink.com 1.10,2013-04-11 18:30:00,
2013-04-11 14:46:00,84.1,49.0,28.02,SSE,158,4.0,12.0,29,0.00,,,0.00,weatherlink.com 1.10,2013-04-11 18:46:00,
2013-04-11 15:01:00,83.6,50.0,28.01,South,188,1.0,11.0,31,0.00,,,0.00,weatherlink.com 1.10,2013-04-11 19:01:00,
2013-04-11 15:16:00,83.3,50.0,28.00,SSE,159,4.0,11.0,31,0.00,,,0.00,weatherlink.com 1.10,2013-04-11 19:16:00,
2013-04-11 15:31:00,82.2,50.0,28.00,South,185,4.0,10.0,32,0.00,,,0.00,weatherlink.com 1.10,2013-04-11 19:31:00,
2013-04-11 15:46:00,81.6,51.0,28.00,SSE,163,3.0,12.0,34,0.00,,,0.00,weatherlink.com 1.10,2013-04-11 19:46:00,
2013-04-11 16:01:00,81.5,51.0,27.99,SSE,156,5.0,9.0,34,0.00,,,0.00,weatherlink.com 1.10,2013-04-11 20:01:00,
2013-04-11 16:46:00,80.0,51.0,27.98,South,170,5.0,8.0,36,0.00,,,0.00,weatherlink.com 1.10,2013-04-11 20:46:00,
2013-04-11 17:01:00,79.4,50.0,27.98,SSW,210,4.0,11.0,36,0.00,,,0.00,weatherlink.com 1.10,2013-04-11 21:01:00,
2013-04-11 17:16:00,79.2,52.0,27.98,SSW,201,3.0,9.0,39,0.00,,,0.00,weatherlink.com 1.10,2013-04-11 21:16:00,
2013-04-11 17:31:00,79.4,51.0,27.97,SSW,195,1.0,7.0,37,0.00,,,0.00,weatherlink.com 1.10,2013-04-11 21:31:00,
2013-04-11 18:01:00,78.3,51.0,27.97,SE,145,2.0,9.0,39,0.00,,,0.00,weatherlink.com 1.10,2013-04-11 22:01:00,
2013-04-11 18:16:00,78.0,51.0,27.97,SE,143,3.0,9.0,39,0.00,,,0.00,weatherlink.com 1.10,2013-04-11 22:16:00,
2013-04-11 18:31:00,78.0,51.0,27.97,SSE,153,2.0,9.0,39,0.00,,,0.00,weatherlink.com 1.10,2013-04-11 22:31:00,
2013-04-11 18:46:00,77.4,53.0,27.97,South,169,7.0,10.0,43,0.00,,,0.00,weatherlink.com 1.10,2013-04-11 22:46:00,
2013-04-11 19:01:00,76.8,52.0,27.97,SSW,204,2.0,10.0,42,0.00,,,0.00,weatherlink.com 1.10,2013-04-11 23:01:00,
2013-04-11 19:16:00,76.1,53.0,27.97,South,186,4.0,9.0,44,0.00,,,0.00,weatherlink.com 1.10,2013-04-11 23:16:00,
2013-04-11 19:31:00,74.9,53.0,27.97,SSW,194,3.0,9.0,46,0.00,,,0.00,weatherlink.com 1.10,2013-04-11 23:31:00,
2013-04-11 19:46:00,74.1,53.0,27.97,SSE,156,3.0,8.0,48,0.00,,,0.00,weatherlink.com 1.10,2013-04-11 23:46:00,
2013-04-11 20:01:00,74.2,53.0,27.98,South,183,4.0,14.0,47,0.00,,,0.00,weatherlink.com 1.10,2013-04-12 00:01:00,
2013-04-11 20:16:00,73.7,53.0,27.98,SSE,163,8.0,14.0,48,0.00,,,0.00,weatherlink.com 1.10,2013-04-12 00:16:00,
2013-04-11 20:31:00,73.0,53.0,27.99,South,191,4.0,12.0,50,0.00,,,0.00,weatherlink.com 1.10,2013-04-12 00:31:00,
2013-04-11 20:46:00,72.6,53.0,27.98,South,186,6.0,12.0,51,0.00,,,0.00,weatherlink.com 1.10,2013-04-12 00:46:00,
2013-04-11 21:01:00,72.3,53.0,27.98,SSE,167,8.0,12.0,51,0.00,,,0.00,weatherlink.com 1.10,2013-04-12 01:01:00,
2013-04-11 21:17:00,71.6,53.0,27.98,South,181,6.0,11.0,52,0.00,,,0.00,weatherlink.com 1.10,2013-04-12 01:17:00,
2013-04-11 21:32:00,71.0,53.0,27.98,SSW,195,5.0,9.0,53,0.00,,,0.00,weatherlink.com 1.10,2013-04-12 01:32:00,
2013-04-11 21:47:00,70.6,53.0,27.98,South,176,6.0,10.0,54,0.00,,,0.00,weatherlink.com 1.10,2013-04-12 01:47:00,
2013-04-11 22:02:00,70.1,53.0,27.98,WNW,293,0.0,10.0,55,0.00,,,0.00,weatherlink.com 1.10,2013-04-12 02:02:00,
2013-04-11 22:17:00,68.7,53.0,27.98,SSE,163,4.0,8.0,58,0.00,,,0.00,weatherlink.com 1.10,2013-04-12 02:17:00,
2013-04-11 22:32:00,68.6,53.0,27.98,South,183,6.0,7.0,58,0.00,,,0.00,weatherlink.com 1.10,2013-04-12 02:32:00,
2013-04-11 22:48:00,68.7,53.0,27.97,South,176,2.0,7.0,57,0.00,,,0.00,weatherlink.com 1.10,2013-04-12 02:48:00,
2013-04-11 23:02:00,68.4,53.0,27.98,SSW,194,2.0,9.0,58,0.00,,,0.00,weatherlink.com 1.10,2013-04-12 03:02:00,
2013-04-11 23:17:00,68.9,54.0,27.97,SSW,195,3.0,9.0,59,0.00,,,0.00,weatherlink.com 1.10,2013-04-12 03:17:00,
2013-04-11 23:32:00,69.0,54.0,27.97,South,169,4.0,-999.0,59,-99.99,,,0.00,weatherlink.com 1.10,2013-04-12 03:32:00,
2013-04-11 23:47:00,69.1,54.0,27.97,SSE,162,3.0,10.0,59,0.00,,,0.00,weatherlink.com 1.10,2013-04-12 03:47:00,